Time;durP1;ratioP1;P1;durP2;ratioP2;P2;SDS_P1;SDS_P2;PMS_P1;PMS_P2;Temp;Humidity;BMP_temperature;BMP_pressure;BME280_temperature;BME280_humidity;BME280_pressure;Samples;Min_cycle;Max_cycle;Signal;HPM_P1;HPM_P2
2023/09/19 00:02:17;;;;;;;11.00;2.40;;;16.40;99.90;;;;;;4946037;28;20031;-76
2023/09/19 00:04:44;;;;;;;13.40;2.78;;;16.40;99.90;;;;;;4948243;28;20019;-75
2023/09/19 00:07:10;;;;;;;8.07;2.15;;;16.40;99.90;;;;;;4965139;28;20097;-76
2023/09/19 00:09:37;;;;;;;11.20;2.75;;;16.30;99.90;;;;;;4958267;28;20474;-76
2023/09/19 00:12:06;;;;;;;9.40;2.45;;;16.30;99.90;;;;;;4955775;28;20027;-76
2023/09/19 00:14:38;;;;;;;12.32;2.63;;;16.30;99.90;;;;;;4963950;28;20031;-76
2023/09/19 00:17:08;;;;;;;15.48;2.40;;;16.30;99.90;;;;;;4960130;28;20050;-75
2023/09/19 00:19:37;;;;;;;12.15;3.28;;;16.30;99.90;;;;;;4938912;28;20118;-75
2023/09/19 00:22:04;;;;;;;11.73;2.45;;;16.40;99.90;;;;;;4949895;29;20055;-75
2023/09/19 00:24:31;;;;;;;13.63;2.78;;;16.30;99.90;;;;;;4951929;28;20023;-75
2023/09/19 00:26:58;;;;;;;12.13;2.60;;;16.30;99.90;;;;;;4957221;28;20030;-76
2023/09/19 00:29:29;;;;;;;13.30;2.88;;;16.30;99.90;;;;;;4957873;28;20078;-78
2023/09/19 00:31:56;;;;;;;7.80;2.17;;;16.40;99.90;;;;;;4964577;28;20027;-75
2023/09/19 00:34:22;;;;;;;9.98;2.30;;;16.30;99.90;;;;;;4961357;28;20019;-76
2023/09/19 00:36:48;;;;;;;11.60;2.50;;;16.30;99.90;;;;;;4956542;28;20038;-75
2023/09/19 00:39:14;;;;;;;6.47;2.00;;;16.30;99.90;;;;;;4960680;28;20051;-76
2023/09/19 00:41:40;;;;;;;10.07;2.03;;;16.30;99.90;;;;;;4964477;28;20041;-75
2023/09/19 00:44:06;;;;;;;7.47;1.83;;;16.30;99.90;;;;;;4957571;28;20485;-75
2023/09/19 00:46:32;;;;;;;5.95;1.88;;;16.30;99.90;;;;;;4956872;28;20038;-75
2023/09/19 00:48:59;;;;;;;6.22;1.80;;;16.30;99.90;;;;;;4964404;28;20051;-75
2023/09/19 00:51:25;;;;;;;7.45;1.60;;;16.30;99.90;;;;;;4944344;28;20030;-75
2023/09/19 00:53:52;;;;;;;6.90;1.98;;;16.30;99.90;;;;;;4955956;28;20023;-76
2023/09/19 00:56:18;;;;;;;11.95;2.30;;;16.30;99.90;;;;;;4960468;28;20054;-76
2023/09/19 00:58:46;;;;;;;7.90;1.90;;;16.30;99.90;;;;;;4951924;28;20030;-75
2023/09/19 01:01:14;;;;;;;7.72;2.50;;;16.20;99.90;;;;;;4962131;28;20035;-75
2023/09/19 01:03:41;;;;;;;8.52;2.28;;;16.20;99.90;;;;;;4962105;28;20106;-75
2023/09/19 01:06:08;;;;;;;10.77;2.42;;;16.20;99.90;;;;;;4963347;28;20031;-76
2023/09/19 01:08:36;;;;;;;9.75;2.35;;;16.20;99.90;;;;;;4944835;28;20122;-75
2023/09/19 01:11:14;;;;;;;12.30;2.30;;;16.20;99.90;;;;;;4954689;28;20022;-75
2023/09/19 01:14:02;;;;;;;11.23;2.95;;;16.20;99.90;;;;;;4958235;28;20102;-75
2023/09/19 01:16:50;;;;;;;9.48;2.05;;;16.20;99.90;;;;;;4954548;28;20034;-75
2023/09/19 01:19:43;;;;;;;6.78;2.20;;;16.20;99.90;;;;;;4956542;28;20023;-76
2023/09/19 01:22:52;;;;;;;11.63;3.05;;;16.20;99.90;;;;;;4946526;28;20512;-75
2023/09/19 01:25:47;;;;;;;10.95;2.53;;;16.20;99.90;;;;;;4923365;29;20122;-75
2023/09/19 01:28:30;;;;;;;12.32;3.15;;;16.10;99.90;;;;;;4962972;28;20035;-76
2023/09/19 01:31:01;;;;;;;12.65;3.10;;;16.20;99.90;;;;;;4960401;28;20033;-75
2023/09/19 01:33:27;;;;;;;11.00;2.50;;;16.10;99.90;;;;;;4953870;28;20109;-75
2023/09/19 01:35:57;;;;;;;8.38;2.22;;;16.10;99.90;;;;;;4959414;28;20470;-75
2023/09/19 01:38:23;;;;;;;9.68;2.30;;;16.10;99.90;;;;;;4944881;28;20483;-76
2023/09/19 01:41:04;;;;;;;15.20;3.60;;;16.10;99.90;;;;;;4957662;28;20130;-75
2023/09/19 01:43:45;;;;;;;12.32;2.88;;;16.00;99.90;;;;;;4952804;28;20023;-76
2023/09/19 01:46:24;;;;;;;11.45;2.40;;;16.00;99.90;;;;;;4959996;28;20041;-75
2023/09/19 01:49:06;;;;;;;11.23;2.58;;;16.00;99.90;;;;;;4935107;28;20500;-75
2023/09/19 01:51:53;;;;;;;13.38;3.03;;;15.90;99.90;;;;;;4956598;28;20023;-75
2023/09/19 01:54:27;;;;;;;15.25;3.63;;;15.90;99.90;;;;;;4944007;28;20094;-75
2023/09/19 01:57:04;;;;;;;10.27;2.40;;;15.90;99.90;;;;;;4937697;28;20393;-76
2023/09/19 01:59:36;;;;;;;9.70;2.70;;;15.90;99.90;;;;;;4960602;28;20026;-75
2023/09/19 02:02:05;;;;;;;11.68;2.88;;;15.90;99.90;;;;;;4945543;28;20260;-75
2023/09/19 02:04:34;;;;;;;14.00;2.65;;;15.90;99.90;;;;;;4955825;28;20034;-75
2023/09/19 02:07:01;;;;;;;16.85;2.85;;;15.90;99.90;;;;;;4955068;28;20027;-76
2023/09/19 02:09:26;;;;;;;12.25;2.83;;;15.90;99.90;;;;;;4941278;28;20031;-75
2023/09/19 02:11:52;;;;;;;9.65;2.38;;;15.90;99.90;;;;;;4965106;28;20363;-75
2023/09/19 02:14:19;;;;;;;10.35;2.47;;;15.90;99.90;;;;;;4954451;28;20078;-75
2023/09/19 02:16:45;;;;;;;13.43;2.60;;;15.90;99.90;;;;;;4961167;28;20628;-75
2023/09/19 02:19:26;;;;;;;12.68;3.10;;;15.80;99.90;;;;;;4943327;28;20030;-75
2023/09/19 02:21:52;;;;;;;11.35;2.15;;;15.80;99.90;;;;;;4942766;28;20035;-75
2023/09/19 02:24:19;;;;;;;9.45;2.30;;;15.70;99.90;;;;;;4955914;28;20402;-75
2023/09/19 02:26:44;;;;;;;11.60;2.55;;;15.70;99.90;;;;;;4945349;29;20024;-75
2023/09/19 02:29:12;;;;;;;13.27;2.50;;;15.70;99.90;;;;;;4958687;28;20018;-75
2023/09/19 02:31:38;;;;;;;12.80;2.72;;;15.70;99.90;;;;;;4954477;28;20089;-76
2023/09/19 02:34:06;;;;;;;10.45;2.35;;;15.70;99.90;;;;;;4959337;28;20027;-75
2023/09/19 02:36:31;;;;;;;6.57;2.25;;;15.70;99.90;;;;;;4962248;28;20047;-75
2023/09/19 02:38:57;;;;;;;12.80;2.78;;;15.60;99.90;;;;;;4948431;29;20792;-75
2023/09/19 02:41:23;;;;;;;11.50;2.58;;;15.60;99.90;;;;;;4961388;28;20038;-75
2023/09/19 02:43:48;;;;;;;7.35;2.08;;;15.60;99.90;;;;;;4954226;28;20027;-75
2023/09/19 02:46:14;;;;;;;12.07;2.35;;;15.60;99.90;;;;;;4957394;28;20107;-75
2023/09/19 02:48:40;;;;;;;8.60;2.03;;;15.50;99.90;;;;;;4961292;28;20027;-76
2023/09/19 02:51:06;;;;;;;9.48;2.17;;;15.50;99.90;;;;;;4955964;28;20025;-75
2023/09/19 02:53:32;;;;;;;11.45;2.30;;;15.40;99.90;;;;;;4953974;28;20055;-75
2023/09/19 02:55:57;;;;;;;10.68;2.72;;;15.40;99.90;;;;;;4961480;28;20059;-74
2023/09/19 02:58:24;;;;;;;13.15;2.80;;;15.40;99.90;;;;;;4960941;28;20493;-75
2023/09/19 03:00:51;;;;;;;11.50;2.40;;;15.30;99.90;;;;;;4954333;28;20019;-75
2023/09/19 03:03:17;;;;;;;11.88;2.45;;;15.30;99.90;;;;;;4956652;28;20604;-74
2023/09/19 03:05:46;;;;;;;11.77;2.58;;;15.30;99.90;;;;;;4961765;28;20027;-75
2023/09/19 03:08:14;;;;;;;9.48;2.67;;;15.20;99.90;;;;;;4955083;28;20030;-75
2023/09/19 03:10:40;;;;;;;7.95;2.08;;;15.20;99.90;;;;;;4948945;28;20090;-76
2023/09/19 03:13:09;;;;;;;11.80;2.97;;;15.20;99.90;;;;;;4954080;28;20023;-75
2023/09/19 03:15:39;;;;;;;10.70;2.17;;;15.10;99.90;;;;;;4957457;28;20026;-75
2023/09/19 03:18:05;;;;;;;10.38;2.92;;;15.20;99.90;;;;;;4948230;29;20027;-75
2023/09/19 03:20:31;;;;;;;12.93;2.97;;;15.10;99.90;;;;;;4940086;28;20042;-75
2023/09/19 03:22:57;;;;;;;11.85;2.85;;;15.10;99.90;;;;;;4948256;28;20039;-75
2023/09/19 03:25:23;;;;;;;8.98;2.20;;;15.10;99.90;;;;;;4960545;28;20494;-75
2023/09/19 03:27:48;;;;;;;9.80;2.42;;;15.00;99.90;;;;;;4961068;28;20512;-75
2023/09/19 03:30:14;;;;;;;12.00;2.40;;;15.00;99.90;;;;;;4953748;28;20109;-75
2023/09/19 03:32:49;;;;;;;10.10;2.22;;;15.00;99.90;;;;;;4956787;28;20023;-75
2023/09/19 03:35:15;;;;;;;9.90;2.13;;;15.00;99.90;;;;;;4961555;28;20062;-75
2023/09/19 03:37:42;;;;;;;12.25;2.55;;;14.90;99.90;;;;;;4957315;28;20078;-75
2023/09/19 03:40:10;;;;;;;11.43;2.30;;;14.90;99.90;;;;;;4953625;28;20510;-76
2023/09/19 03:42:39;;;;;;;10.02;2.25;;;14.80;99.90;;;;;;4958788;28;20023;-75
2023/09/19 03:45:06;;;;;;;7.85;1.90;;;14.90;99.90;;;;;;4949318;28;20082;-75
2023/09/19 03:47:31;;;;;;;13.57;2.88;;;14.80;99.90;;;;;;4959971;28;20034;-75
2023/09/19 03:49:57;;;;;;;13.40;3.22;;;14.80;99.90;;;;;;4949192;28;20032;-76
2023/09/19 03:52:23;;;;;;;11.02;2.53;;;14.80;99.90;;;;;;4961562;28;20106;-75
2023/09/19 03:54:48;;;;;;;12.60;2.40;;;14.80;99.90;;;;;;4959201;28;20138;-75
2023/09/19 03:57:17;;;;;;;12.90;2.40;;;14.80;99.90;;;;;;4936428;28;20030;-75
2023/09/19 03:59:42;;;;;;;6.32;1.98;;;14.80;99.90;;;;;;4957643;28;20031;-75
2023/09/19 04:02:13;;;;;;;12.68;2.50;;;14.70;99.90;;;;;;4965185;28;20162;-75
2023/09/19 04:04:38;;;;;;;16.70;2.97;;;14.70;99.90;;;;;;4941821;28;20093;-75
2023/09/19 04:07:04;;;;;;;8.60;2.60;;;14.70;99.90;;;;;;4956833;28;20031;-75
2023/09/19 04:09:30;;;;;;;10.88;2.55;;;14.70;99.90;;;;;;4963978;28;20078;-75
2023/09/19 04:11:56;;;;;;;9.68;2.30;;;14.70;99.90;;;;;;4955148;28;20712;-75
2023/09/19 04:14:21;;;;;;;7.50;2.25;;;14.70;99.90;;;;;;4934168;28;20117;-75
2023/09/19 04:16:47;;;;;;;10.93;2.63;;;14.60;99.90;;;;;;4964205;28;20015;-75
2023/09/19 04:19:14;;;;;;;6.70;1.95;;;14.60;99.90;;;;;;4962951;28;20034;-76
2023/09/19 04:21:40;;;;;;;11.05;3.70;;;14.60;99.90;;;;;;4956694;28;20037;-76
2023/09/19 04:24:06;;;;;;;6.95;1.90;;;14.60;99.90;;;;;;4959709;28;20027;-76
2023/09/19 04:26:32;;;;;;;9.73;2.30;;;14.60;99.90;;;;;;4936406;28;20397;-75
2023/09/19 04:28:58;;;;;;;10.18;2.22;;;14.60;99.90;;;;;;4960153;28;20082;-76
2023/09/19 04:31:25;;;;;;;8.25;2.15;;;14.60;99.90;;;;;;4951652;28;20023;-76
2023/09/19 04:33:51;;;;;;;9.10;2.45;;;14.60;99.90;;;;;;4963086;28;20047;-76
2023/09/19 04:36:17;;;;;;;12.85;2.78;;;14.60;99.90;;;;;;4963491;28;20051;-75
2023/09/19 04:38:42;;;;;;;8.50;2.10;;;14.60;99.90;;;;;;4951467;28;20031;-76
2023/09/19 04:41:08;;;;;;;10.93;2.13;;;14.60;99.90;;;;;;4961232;28;20047;-76
2023/09/19 04:43:34;;;;;;;13.27;2.28;;;14.60;99.90;;;;;;4956242;28;20077;-76
2023/09/19 04:46:00;;;;;;;9.18;1.90;;;14.70;99.90;;;;;;4961511;28;20250;-76
2023/09/19 04:48:26;;;;;;;7.20;1.95;;;14.70;99.90;;;;;;4964138;28;20023;-76
2023/09/19 04:50:52;;;;;;;6.35;1.90;;;14.70;99.90;;;;;;4940197;28;20026;-75
2023/09/19 04:53:20;;;;;;;8.65;2.25;;;14.70;99.90;;;;;;4957060;28;20027;-75
2023/09/19 04:55:50;;;;;;;10.13;2.63;;;14.70;99.90;;;;;;4963855;28;20513;-76
2023/09/19 04:58:17;;;;;;;14.27;2.22;;;14.70;99.90;;;;;;4944983;28;20050;-76
2023/09/19 05:00:43;;;;;;;12.57;2.25;;;14.70;99.90;;;;;;4955756;28;20035;-76
2023/09/19 05:03:09;;;;;;;10.23;2.47;;;14.70;99.90;;;;;;4960101;28;20402;-75
2023/09/19 05:05:34;;;;;;;10.07;1.92;;;14.70;99.90;;;;;;4963461;28;20481;-76
2023/09/19 05:08:00;;;;;;;10.48;2.35;;;14.70;99.90;;;;;;4957810;28;20038;-76
2023/09/19 05:10:26;;;;;;;7.40;1.92;;;14.60;99.90;;;;;;4955599;28;20062;-76
2023/09/19 05:12:55;;;;;;;10.63;2.50;;;14.60;99.90;;;;;;4963625;28;20023;-76
2023/09/19 05:15:21;;;;;;;8.52;2.05;;;14.70;99.90;;;;;;4955596;28;20524;-76
2023/09/19 05:17:51;;;;;;;8.00;1.85;;;14.70;99.90;;;;;;4956512;28;20060;-76
2023/09/19 05:20:24;;;;;;;8.93;2.20;;;14.70;99.90;;;;;;4960441;28;20042;-76
2023/09/19 05:23:13;;;;;;;7.60;2.50;;;14.70;99.90;;;;;;4959727;28;20030;-77
2023/09/19 05:25:40;;;;;;;6.72;1.75;;;14.70;99.90;;;;;;4962976;28;20023;-76
2023/09/19 05:28:14;;;;;;;14.20;2.65;;;14.70;99.90;;;;;;4963843;28;20046;-76
2023/09/19 05:30:42;;;;;;;9.63;2.33;;;14.70;99.90;;;;;;4965733;28;20030;-75
2023/09/19 05:33:09;;;;;;;6.38;2.38;;;14.70;99.90;;;;;;4950820;28;20454;-76
2023/09/19 05:35:41;;;;;;;11.57;2.63;;;14.70;99.90;;;;;;4944166;29;20015;-75
2023/09/19 05:38:09;;;;;;;8.52;2.33;;;14.70;99.90;;;;;;4958400;28;20034;-76
2023/09/19 05:40:35;;;;;;;10.48;2.13;;;14.70;99.90;;;;;;4951675;28;20405;-76
2023/09/19 05:43:03;;;;;;;13.23;2.60;;;14.70;99.90;;;;;;4948633;28;20090;-76
2023/09/19 05:45:29;;;;;;;8.05;2.15;;;14.70;99.90;;;;;;4946038;28;20506;-76
2023/09/19 05:48:04;;;;;;;12.10;2.40;;;14.70;99.90;;;;;;4944089;28;20031;-76
2023/09/19 05:50:30;;;;;;;8.77;2.65;;;14.70;99.90;;;;;;4959719;28;20799;-75
2023/09/19 05:52:58;;;;;;;9.23;2.33;;;14.80;99.90;;;;;;4947603;28;20557;-75
2023/09/19 05:55:24;;;;;;;7.38;2.08;;;14.70;99.90;;;;;;4959941;28;20033;-76
2023/09/19 05:57:54;;;;;;;8.23;2.03;;;14.80;99.90;;;;;;4958128;28;20015;-76
2023/09/19 06:00:22;;;;;;;4.40;1.60;;;14.80;99.90;;;;;;4954109;28;20031;-76
2023/09/19 06:02:56;;;;;;;13.30;2.28;;;14.80;99.90;;;;;;4957797;28;20019;-76
2023/09/19 06:05:30;;;;;;;14.38;2.70;;;14.80;99.90;;;;;;4953746;28;20026;-76
2023/09/19 06:07:58;;;;;;;9.55;2.40;;;14.80;99.90;;;;;;4954455;28;20126;-76
2023/09/19 06:10:25;;;;;;;5.30;1.63;;;14.80;99.90;;;;;;4951031;28;20019;-76
2023/09/19 06:12:50;;;;;;;11.25;2.38;;;14.80;99.90;;;;;;4959997;28;20119;-76
2023/09/19 06:15:18;;;;;;;14.40;2.58;;;14.90;99.90;;;;;;4964271;28;20065;-76
2023/09/19 06:17:55;;;;;;;10.85;2.25;;;14.90;99.90;;;;;;4956562;28;20401;-77
2023/09/19 06:20:23;;;;;;;10.63;2.38;;;14.90;99.90;;;;;;4960693;28;20050;-75
2023/09/19 06:22:48;;;;;;;12.68;3.22;;;14.90;99.90;;;;;;4954368;28;20022;-76
2023/09/19 06:25:19;;;;;;;8.85;2.10;;;14.90;99.90;;;;;;4959538;28;20389;-76
2023/09/19 06:27:45;;;;;;;13.77;2.20;;;14.90;99.90;;;;;;4956097;28;20027;-76
2023/09/19 06:30:11;;;;;;;8.63;2.15;;;14.90;99.90;;;;;;4958687;28;20034;-76
2023/09/19 06:32:37;;;;;;;8.52;2.10;;;14.90;99.90;;;;;;4953758;28;20015;-76
2023/09/19 06:35:03;;;;;;;10.18;2.30;;;14.90;99.90;;;;;;4954225;28;20023;-76
2023/09/19 06:37:29;;;;;;;9.27;2.20;;;14.90;99.90;;;;;;4949174;28;20528;-76
2023/09/19 06:39:56;;;;;;;10.50;2.90;;;14.90;99.90;;;;;;4949474;28;20145;-77
2023/09/19 06:42:22;;;;;;;9.25;2.38;;;15.00;99.90;;;;;;4949070;28;20023;-76
2023/09/19 06:44:49;;;;;;;13.60;2.83;;;15.00;99.90;;;;;;4950149;28;20035;-76
2023/09/19 06:47:16;;;;;;;10.23;2.40;;;15.00;99.90;;;;;;4948881;28;20023;-76
2023/09/19 06:49:43;;;;;;;9.05;2.28;;;15.10;99.90;;;;;;4954714;28;20081;-76
2023/09/19 06:52:09;;;;;;;14.75;2.92;;;15.10;99.90;;;;;;4958362;28;20034;-76
2023/09/19 06:54:35;;;;;;;9.68;1.77;;;15.10;99.90;;;;;;4959247;28;20026;-76
2023/09/19 06:57:01;;;;;;;11.27;2.47;;;15.20;99.90;;;;;;4965253;28;20389;-76
2023/09/19 06:59:27;;;;;;;11.63;2.38;;;15.20;99.90;;;;;;4959991;28;20027;-76
2023/09/19 07:01:54;;;;;;;11.70;2.78;;;15.20;99.90;;;;;;4962111;28;20050;-76
2023/09/19 07:04:20;;;;;;;7.22;1.85;;;15.20;99.90;;;;;;4941959;28;20073;-76
2023/09/19 07:06:53;;;;;;;10.07;1.95;;;15.30;99.90;;;;;;4956183;28;20039;-76
2023/09/19 07:09:19;;;;;;;10.27;2.50;;;15.30;99.90;;;;;;4961696;28;20040;-75
2023/09/19 07:11:45;;;;;;;13.90;2.55;;;15.30;99.90;;;;;;4954657;28;20117;-75
2023/09/19 07:14:11;;;;;;;11.82;2.38;;;15.30;99.90;;;;;;4961128;28;20027;-76
2023/09/19 07:16:39;;;;;;;10.15;2.28;;;15.40;99.90;;;;;;4963727;28;20477;-75
2023/09/19 07:19:05;;;;;;;8.95;2.20;;;15.40;99.90;;;;;;4950290;28;20027;-75
2023/09/19 07:21:32;;;;;;;11.00;2.33;;;15.40;99.90;;;;;;4949078;28;20620;-75
2023/09/19 07:24:00;;;;;;;7.97;2.17;;;15.40;99.90;;;;;;4955042;28;20787;-76
2023/09/19 07:26:27;;;;;;;9.80;2.05;;;15.40;99.90;;;;;;4956297;28;20027;-76
2023/09/19 07:28:53;;;;;;;10.90;2.70;;;15.50;99.90;;;;;;4955761;28;20031;-76
2023/09/19 07:31:20;;;;;;;13.48;3.22;;;15.50;99.90;;;;;;4950308;28;20028;-76
2023/09/19 07:33:45;;;;;;;13.95;3.25;;;15.60;99.90;;;;;;4955313;28;20027;-75
2023/09/19 07:36:14;;;;;;;9.07;3.08;;;15.60;99.90;;;;;;4955539;28;20106;-76
2023/09/19 07:38:40;;;;;;;11.32;3.13;;;15.70;99.90;;;;;;4963114;28;20027;-76
2023/09/19 07:41:09;;;;;;;17.67;3.15;;;15.70;99.90;;;;;;4951690;28;20046;-76
2023/09/19 07:43:35;;;;;;;8.90;2.70;;;15.70;99.90;;;;;;4963744;28;20034;-75
2023/09/19 07:46:11;;;;;;;8.40;2.58;;;15.80;99.90;;;;;;4960423;28;20074;-75
2023/09/19 07:48:38;;;;;;;12.30;3.25;;;15.80;99.90;;;;;;4955249;28;20118;-76
2023/09/19 07:51:07;;;;;;;13.05;2.63;;;15.90;99.90;;;;;;4933719;29;20019;-76
2023/09/19 07:53:34;;;;;;;13.85;2.50;;;15.90;99.90;;;;;;4963838;28;20080;-76
2023/09/19 07:56:07;;;;;;;13.70;2.95;;;16.00;99.90;;;;;;4955454;28;20080;-76
2023/09/19 07:58:34;;;;;;;11.40;2.70;;;16.00;99.90;;;;;;4951677;28;20110;-75
2023/09/19 08:01:07;;;;;;;13.93;3.13;;;16.10;99.90;;;;;;4948649;28;20027;-77
2023/09/19 08:03:34;;;;;;;10.35;2.10;;;16.10;99.90;;;;;;4957458;28;20035;-75
2023/09/19 08:06:00;;;;;;;9.45;1.95;;;16.10;99.90;;;;;;4955695;28;20039;-75
2023/09/19 08:08:27;;;;;;;10.82;3.28;;;16.20;99.90;;;;;;4954574;28;20482;-75
2023/09/19 08:10:56;;;;;;;12.90;2.80;;;16.20;99.90;;;;;;4956723;28;20022;-76
2023/09/19 08:13:23;;;;;;;12.90;3.13;;;16.30;99.90;;;;;;4933452;29;20110;-74
2023/09/19 08:15:50;;;;;;;13.07;3.10;;;16.30;99.90;;;;;;4944938;28;20060;-75
2023/09/19 08:18:17;;;;;;;13.05;3.13;;;16.30;99.90;;;;;;4963208;28;20019;-74
2023/09/19 08:20:45;;;;;;;13.70;3.22;;;16.40;99.90;;;;;;4950443;28;20848;-75
2023/09/19 08:23:11;;;;;;;12.80;2.75;;;16.40;99.90;;;;;;4937428;28;20030;-76
2023/09/19 08:25:38;;;;;;;12.00;2.78;;;16.40;99.90;;;;;;4921601;29;20833;-76
2023/09/19 08:28:08;;;;;;;12.15;2.90;;;16.40;99.90;;;;;;4934511;28;20038;-75
2023/09/19 08:30:34;;;;;;;15.27;2.70;;;16.50;99.90;;;;;;4956335;28;20020;-75
2023/09/19 08:33:00;;;;;;;13.25;3.03;;;16.60;99.90;;;;;;4949606;28;20024;-75
2023/09/19 08:35:27;;;;;;;11.32;2.67;;;16.60;99.90;;;;;;4948035;28;20023;-75
2023/09/19 08:37:53;;;;;;;10.00;2.50;;;16.70;99.90;;;;;;4953451;28;20502;-75
2023/09/19 08:40:19;;;;;;;11.77;2.72;;;16.80;99.90;;;;;;4939960;28;20077;-74
2023/09/19 08:42:53;;;;;;;16.58;3.38;;;16.80;99.90;;;;;;4949537;28;20085;-75
2023/09/19 08:45:24;;;;;;;13.02;2.42;;;16.90;99.90;;;;;;4953671;28;20142;-76
2023/09/19 08:48:23;;;;;;;12.18;2.35;;;16.90;99.90;;;;;;4960174;28;20058;-77
2023/09/19 08:51:07;;;;;;;15.85;3.28;;;17.00;99.90;;;;;;4943920;28;20025;-77
2023/09/19 08:53:50;;;;;;;11.00;2.45;;;17.00;99.90;;;;;;4956207;28;20120;-76
2023/09/19 08:56:18;;;;;;;12.95;3.05;;;17.10;99.90;;;;;;4960060;28;20481;-77
2023/09/19 08:58:53;;;;;;;9.13;2.40;;;17.10;99.90;;;;;;4963969;28;20061;-76
2023/09/19 09:01:24;;;;;;;12.48;3.25;;;17.20;99.90;;;;;;4958705;28;20500;-76
2023/09/19 09:03:52;;;;;;;13.18;3.75;;;17.20;99.90;;;;;;4956406;28;20020;-76
2023/09/19 09:06:23;;;;;;;14.38;3.53;;;17.30;99.90;;;;;;4961257;28;20059;-77
2023/09/19 09:08:50;;;;;;;15.15;2.70;;;17.30;99.90;;;;;;4962411;28;20031;-76
2023/09/19 09:11:17;;;;;;;12.70;3.55;;;17.30;99.90;;;;;;4953687;28;20505;-77
2023/09/19 09:13:47;;;;;;;10.35;2.42;;;17.30;99.90;;;;;;4959286;28;20042;-77
2023/09/19 09:16:13;;;;;;;9.80;2.80;;;17.40;99.90;;;;;;4954115;28;20035;-76
2023/09/19 09:18:40;;;;;;;7.10;2.10;;;17.50;99.90;;;;;;4960714;28;20031;-76
2023/09/19 09:21:05;;;;;;;10.82;2.60;;;17.60;99.90;;;;;;4962375;28;20058;-76
2023/09/19 09:23:32;;;;;;;11.25;2.17;;;17.60;99.90;;;;;;4935530;29;20062;-76
2023/09/19 09:26:09;;;;;;;13.30;2.45;;;17.60;99.90;;;;;;4960204;28;20050;-76
2023/09/19 09:28:36;;;;;;;11.18;2.80;;;17.70;99.90;;;;;;4954250;28;20604;-76
2023/09/19 09:31:08;;;;;;;8.77;2.33;;;17.80;99.90;;;;;;4956172;28;20054;-76
2023/09/19 09:33:35;;;;;;;14.13;3.45;;;17.80;99.90;;;;;;4963299;28;20486;-76
2023/09/19 09:36:03;;;;;;;9.02;2.47;;;18.00;99.90;;;;;;4948267;29;20035;-76
2023/09/19 09:38:48;;;;;;;10.68;2.55;;;18.10;99.90;;;;;;4971184;28;20022;-76
2023/09/19 09:41:27;;;;;;;10.77;2.58;;;18.30;99.90;;;;;;4956789;28;20046;-76
2023/09/19 09:43:53;;;;;;;9.68;2.03;;;18.50;99.90;;;;;;4965937;28;20023;-77
2023/09/19 09:52:00;;;;;;;9.18;2.15;;;18.60;99.90;;;;;;4955420;28;20129;-75
2023/09/19 09:54:41;;;;;;;9.63;2.28;;;18.60;99.90;;;;;;4943163;29;20020;-76
2023/09/19 09:57:16;;;;;;;8.55;2.15;;;18.60;99.90;;;;;;4945213;28;20105;-76
2023/09/19 09:59:46;;;;;;;11.82;2.78;;;18.60;99.90;;;;;;4958537;28;20138;-76
2023/09/19 10:02:28;;;;;;;9.45;1.92;;;18.70;99.90;;;;;;4955404;28;20027;-76
2023/09/19 10:05:06;;;;;;;8.35;2.38;;;18.80;99.90;;;;;;4952492;28;20065;-76
2023/09/19 10:07:32;;;;;;;11.18;2.47;;;18.80;99.90;;;;;;4953682;28;20023;-76
2023/09/19 10:10:28;;;;;;;11.20;2.80;;;18.90;99.90;;;;;;4933994;29;20589;-76
2023/09/19 10:12:56;;;;;;;9.70;2.50;;;18.90;99.90;;;;;;4958659;28;20097;-76
2023/09/19 10:15:25;;;;;;;7.82;2.30;;;19.00;99.90;;;;;;4956896;28;20113;-75
2023/09/19 10:17:58;;;;;;;9.73;2.43;;;19.00;99.90;;;;;;4954755;28;20134;-76
2023/09/19 10:20:37;;;;;;;16.15;3.88;;;19.00;99.90;;;;;;4959784;28;20027;-76
2023/09/19 10:23:12;;;;;;;10.88;2.63;;;19.00;99.90;;;;;;4951281;28;20046;-76
2023/09/19 10:25:42;;;;;;;8.23;2.70;;;19.00;99.90;;;;;;4959116;28;20034;-76
2023/09/19 10:28:13;;;;;;;12.47;2.70;;;19.00;99.90;;;;;;4961883;28;20123;-75
2023/09/19 10:30:44;;;;;;;12.20;2.67;;;19.00;99.90;;;;;;4956605;28;20531;-76
2023/09/19 10:33:14;;;;;;;11.90;2.80;;;19.10;99.90;;;;;;4954525;28;20398;-75
2023/09/19 10:35:45;;;;;;;10.05;2.40;;;19.20;99.90;;;;;;4942461;29;20023;-75
2023/09/19 10:38:28;;;;;;;10.23;2.42;;;19.20;99.90;;;;;;4962883;28;20117;-76
2023/09/19 10:40:55;;;;;;;12.90;2.60;;;19.30;99.90;;;;;;4952183;28;20050;-76
2023/09/19 10:43:30;;;;;;;8.57;2.40;;;19.30;99.90;;;;;;4954510;28;20423;-76
2023/09/19 10:46:00;;;;;;;9.25;2.22;;;19.30;99.90;;;;;;4963003;28;20031;-75
2023/09/19 10:48:28;;;;;;;10.30;2.65;;;19.30;99.90;;;;;;4962091;28;20508;-76
2023/09/19 10:51:04;;;;;;;11.43;2.40;;;19.40;99.90;;;;;;4955332;28;20033;-76
2023/09/19 10:53:42;;;;;;;10.38;2.08;;;19.30;99.90;;;;;;4954411;28;20528;-76
2023/09/19 10:56:14;;;;;;;8.20;2.72;;;19.30;99.90;;;;;;4963019;28;20024;-75
2023/09/19 10:58:44;;;;;;;11.23;3.10;;;19.30;99.90;;;;;;4959627;28;20087;-76
2023/09/19 11:01:18;;;;;;;9.85;2.53;;;19.20;99.90;;;;;;4945419;28;20034;-76
2023/09/19 11:03:44;;;;;;;12.55;2.88;;;19.20;99.90;;;;;;4962725;28;20191;-76
2023/09/19 11:06:18;;;;;;;11.10;2.30;;;19.20;99.90;;;;;;4950397;28;20078;-75
2023/09/19 11:08:57;;;;;;;7.22;1.90;;;19.10;99.90;;;;;;4951262;28;20510;-76
2023/09/19 11:11:42;;;;;;;11.27;2.40;;;19.10;99.90;;;;;;4949454;28;20577;-76
2023/09/19 11:14:14;;;;;;;6.80;1.65;;;19.10;99.90;;;;;;4953943;28;20027;-75
2023/09/19 11:17:00;;;;;;;7.85;2.50;;;19.10;99.90;;;;;;4953451;28;20027;-76
2023/09/19 11:20:24;;;;;;;8.75;2.20;;;19.10;99.90;;;;;;4952444;28;20027;-76
2023/09/19 11:22:58;;;;;;;10.18;2.53;;;19.10;99.90;;;;;;4950622;28;20548;-77
2023/09/19 11:25:30;;;;;;;8.38;2.33;;;19.10;99.90;;;;;;4955659;28;20505;-75
2023/09/19 11:30:39;;;;;;;8.93;2.22;;;19.30;99.90;;;;;;4951707;28;20039;-75
2023/09/19 11:33:28;;;;;;;7.82;1.63;;;19.40;99.90;;;;;;4953025;28;20023;-76
2023/09/19 11:36:14;;;;;;;7.45;1.98;;;19.50;99.90;;;;;;4969656;28;20033;-76
2023/09/19 11:38:49;;;;;;;10.52;2.65;;;19.50;99.90;;;;;;4954466;28;20028;-76
2023/09/19 11:41:21;;;;;;;12.52;2.30;;;19.50;99.90;;;;;;4949139;28;20055;-76
2023/09/19 11:44:13;;;;;;;9.98;2.00;;;19.50;99.90;;;;;;4958032;28;20548;-76
2023/09/19 11:46:52;;;;;;;8.70;1.85;;;19.60;99.90;;;;;;4942056;28;20051;-76
2023/09/19 11:49:29;;;;;;;10.90;1.98;;;19.60;99.90;;;;;;4961573;28;20023;-76
2023/09/19 11:51:56;;;;;;;9.02;2.28;;;19.60;99.90;;;;;;4963843;28;20178;-76
2023/09/19 11:54:22;;;;;;;8.02;2.05;;;19.60;99.90;;;;;;4940559;28;20389;-76
2023/09/19 11:56:57;;;;;;;8.45;1.95;;;19.70;99.90;;;;;;4956571;28;20034;-76
2023/09/19 11:59:33;;;;;;;9.95;2.08;;;19.70;99.90;;;;;;4945062;28;20472;-76
2023/09/19 12:02:05;;;;;;;8.18;2.13;;;19.70;99.90;;;;;;4959809;28;20275;-76
2023/09/19 12:04:45;;;;;;;12.65;2.88;;;19.80;99.90;;;;;;4957357;28;20038;-76
2023/09/19 12:07:15;;;;;;;4.05;1.50;;;19.80;99.90;;;;;;4957217;28;20070;-76
2023/09/19 12:10:04;;;;;;;5.68;1.50;;;19.90;99.90;;;;;;4959399;28;20016;-76
2023/09/19 12:12:32;;;;;;;8.32;1.98;;;20.00;99.90;;;;;;4953894;28;20054;-76
2023/09/19 12:15:03;;;;;;;7.70;1.98;;;20.00;99.90;;;;;;4964081;28;20112;-76
2023/09/19 12:17:44;;;;;;;8.63;1.95;;;20.10;99.90;;;;;;4951358;28;20070;-76
2023/09/19 12:20:13;;;;;;;5.97;1.90;;;20.10;99.90;;;;;;4937003;28;20647;-76
2023/09/19 12:22:43;;;;;;;6.18;1.73;;;20.10;99.90;;;;;;4949789;28;20517;-75
2023/09/19 12:25:11;;;;;;;5.30;1.30;;;20.20;99.90;;;;;;4965213;28;20031;-76
2023/09/19 12:27:46;;;;;;;6.38;1.50;;;20.20;99.90;;;;;;4944201;29;20030;-76
2023/09/19 12:30:17;;;;;;;8.57;1.88;;;20.30;99.90;;;;;;4939783;28;20030;-77
2023/09/19 12:32:44;;;;;;;9.77;2.17;;;20.40;99.90;;;;;;4943819;28;20110;-75
2023/09/19 12:35:12;;;;;;;12.50;2.38;;;20.50;99.90;;;;;;4962420;28;20058;-76
2023/09/19 12:37:53;;;;;;;7.00;1.60;;;20.50;99.90;;;;;;4966529;28;20027;-75
2023/09/19 12:40:22;;;;;;;5.05;1.50;;;20.50;99.90;;;;;;4963000;28;20057;-76
2023/09/19 12:42:53;;;;;;;6.25;1.50;;;20.50;99.60;;;;;;4954428;28;20027;-77
2023/09/19 12:45:19;;;;;;;5.75;1.50;;;20.40;99.70;;;;;;4943286;28;20036;-77
2023/09/19 12:48:29;;;;;;;6.95;1.52;;;20.40;99.90;;;;;;4953020;28;20089;-76
2023/09/19 12:51:12;;;;;;;8.07;1.33;;;20.30;99.80;;;;;;4957250;28;20042;-76
2023/09/19 12:53:48;;;;;;;5.53;1.60;;;20.30;99.90;;;;;;4950917;28;20572;-76
2023/09/19 12:56:18;;;;;;;7.00;1.90;;;20.20;99.90;;;;;;4947217;28;20026;-76
2023/09/19 12:58:55;;;;;;;8.80;1.90;;;20.10;99.90;;;;;;4956545;28;20016;-77
2023/09/19 13:01:27;;;;;;;3.50;1.30;;;20.10;99.90;;;;;;4960388;28;20024;-76
2023/09/19 13:04:18;;;;;;;5.55;1.40;;;20.10;99.90;;;;;;4941419;28;20035;-76
2023/09/19 13:06:49;;;;;;;9.25;1.48;;;20.10;99.90;;;;;;4957988;28;20038;-76